Time;durP1;ratioP1;P1;durP2;ratioP2;P2;SDS_P1;SDS_P2;PMS_P1;PMS_P2;Temp;Humidity;BMP_temperature;BMP_pressure;BME280_temperature;BME280_humidity;BME280_pressure;Samples;Min_cycle;Max_cycle;Signal;HPM_P1;HPM_P2
2022/10/21 00:01:28;;;;;;;14.50;5.00;;;;;;;4.34;58.66;101640.78;126539;1086;107956;-76
2022/10/21 00:03:56;;;;;;;12.07;5.23;;;;;;;4.34;57.90;101645.09;126281;1086;104024;-76
2022/10/21 00:06:25;;;;;;;13.47;5.70;;;;;;;4.34;58.19;101647.69;126323;1086;104226;-76
2022/10/21 00:08:53;;;;;;;13.70;5.00;;;;;;;4.31;58.97;101643.14;126430;1086;104194;-76
2022/10/21 00:11:21;;;;;;;15.87;5.03;;;;;;;4.29;58.23;101637.83;126284;1086;104232;-76
2022/10/21 00:13:50;;;;;;;14.27;5.07;;;;;;;4.27;58.66;101643.67;126344;1086;104232;-76
2022/10/21 00:16:19;;;;;;;11.80;5.00;;;;;;;4.26;59.03;101640.18;126304;1086;104181;-76
2022/10/21 00:18:48;;;;;;;13.80;4.80;;;;;;;4.24;59.05;101636.56;125927;1087;102821;-75
2022/10/21 00:21:19;;;;;;;14.27;4.90;;;;;;;4.21;58.70;101638.92;126320;1086;104156;-75
2022/10/21 00:23:50;;;;;;;13.10;5.20;;;;;;;4.18;59.54;101643.87;126310;1086;102989;-75
2022/10/21 00:26:19;;;;;;;14.65;5.85;;;;;;;4.15;58.70;101638.44;126247;1086;104267;-75
2022/10/21 00:28:48;;;;;;;12.30;5.20;;;;;;;4.14;59.09;101639.20;125974;1086;104024;-76
2022/10/21 00:31:16;;;;;;;10.40;4.80;;;;;;;4.13;59.16;101637.41;126279;1086;104755;-75
2022/10/21 00:33:45;;;;;;;12.67;4.87;;;;;;;4.10;59.68;101627.67;125945;1086;104270;-76
2022/10/21 00:36:14;;;;;;;12.53;4.70;;;;;;;4.08;59.12;101629.25;126290;1086;104396;-75
2022/10/21 00:38:44;;;;;;;12.70;4.73;;;;;;;4.05;59.13;101621.22;126282;1086;104232;-75
2022/10/21 00:41:13;;;;;;;11.37;5.20;;;;;;;4.04;59.43;101623.69;126266;1086;104241;-76
2022/10/21 00:43:57;;;;;;;12.97;4.97;;;;;;;4.01;59.42;101634.73;126359;1086;104166;-76
2022/10/21 00:46:35;;;;;;;13.50;4.63;;;;;;;4.02;59.34;101633.03;126312;1086;104313;-75
2022/10/21 00:49:07;;;;;;;14.17;5.17;;;;;;;4.02;59.48;101617.44;126311;1086;102993;-75
2022/10/21 00:51:39;;;;;;;15.30;5.00;;;;;;;4.00;59.06;101614.72;126327;1085;104359;-76
2022/10/21 00:54:08;;;;;;;12.80;5.07;;;;;;;3.98;59.52;101620.60;126351;1086;104210;-75
2022/10/21 00:56:37;;;;;;;12.67;5.10;;;;;;;3.95;59.86;101613.45;126304;1086;104283;-76
2022/10/21 00:59:06;;;;;;;13.10;5.30;;;;;;;3.93;59.89;101613.34;126315;1086;104179;-75
2022/10/21 01:01:35;;;;;;;13.27;5.13;;;;;;;3.91;59.74;101624.38;126324;1086;104229;-75
2022/10/21 01:04:04;;;;;;;15.57;5.60;;;;;;;3.89;59.99;101616.45;126316;1086;104072;-75
2022/10/21 01:06:37;;;;;;;13.60;5.37;;;;;;;3.90;59.64;101618.28;126350;1086;104040;-75
2022/10/21 01:09:05;;;;;;;10.97;4.40;;;;;;;3.87;59.76;101618.03;126358;1086;102862;-76
2022/10/21 01:11:40;;;;;;;12.00;4.87;;;;;;;3.83;59.61;101618.56;126244;1086;104242;-76
2022/10/21 01:14:19;;;;;;;13.90;4.97;;;;;;;3.78;60.08;101617.29;126337;1086;104287;-76
2022/10/21 01:16:58;;;;;;;14.80;5.23;;;;;;;3.74;60.18;101612.63;126282;1085;104232;-75
2022/10/21 01:20:15;;;;;;;11.00;4.83;;;;;;;3.71;61.10;101618.50;126309;1086;104165;-75
2022/10/21 01:23:06;;;;;;;15.20;4.97;;;;;;;3.66;60.27;101614.62;126200;1086;104238;-75
2022/10/21 01:26:01;;;;;;;14.13;5.00;;;;;;;3.66;61.38;101611.11;126324;1086;102512;-75
2022/10/21 01:28:46;;;;;;;12.17;5.23;;;;;;;3.63;60.68;101613.45;126349;1086;104359;-76
2022/10/21 01:31:20;;;;;;;12.97;5.00;;;;;;;3.59;62.06;101620.98;126346;1086;102459;-75
2022/10/21 01:33:54;;;;;;;12.57;4.77;;;;;;;3.57;61.82;101617.38;126333;1086;104415;-75
2022/10/21 01:36:37;;;;;;;12.95;5.05;;;;;;;3.55;61.76;101618.95;126332;1086;104152;-75
2022/10/21 01:39:22;;;;;;;11.40;4.97;;;;;;;3.56;61.02;101617.25;126317;1086;104155;-76
2022/10/21 01:42:01;;;;;;;11.47;4.33;;;;;;;3.58;61.56;101623.45;126320;1086;104232;-76
2022/10/21 01:44:35;;;;;;;15.60;5.23;;;;;;;3.57;61.59;101629.45;126299;1086;102804;-75
2022/10/21 01:47:10;;;;;;;11.57;4.70;;;;;;;3.55;62.27;101629.33;126328;1086;104152;-75
2022/10/21 01:49:44;;;;;;;14.33;5.03;;;;;;;3.53;61.83;101620.48;126338;1086;104151;-75
2022/10/21 01:52:15;;;;;;;11.93;4.83;;;;;;;3.53;61.65;101619.59;126255;1086;104149;-75
2022/10/21 01:54:50;;;;;;;12.13;4.90;;;;;;;3.50;61.37;101625.42;126309;1086;104235;-75
2022/10/21 01:57:21;;;;;;;13.13;5.43;;;;;;;3.46;61.86;101623.37;126278;1086;104295;-75
2022/10/21 01:59:51;;;;;;;12.47;5.10;;;;;;;3.45;61.37;101626.75;126328;1086;104184;-76
2022/10/21 02:02:21;;;;;;;15.10;5.00;;;;;;;3.45;61.42;101631.04;126616;1086;102863;-75
2022/10/21 02:04:52;;;;;;;15.00;5.47;;;;;;;3.45;61.06;101631.04;126354;1086;102161;-75
2022/10/21 02:07:20;;;;;;;14.30;5.43;;;;;;;3.41;61.42;101635.05;126373;1086;104183;-75
2022/10/21 02:09:48;;;;;;;11.60;4.97;;;;;;;3.38;61.87;101643.50;126283;1086;104232;-75
2022/10/21 02:12:18;;;;;;;13.97;5.13;;;;;;;3.35;61.47;101640.66;126220;1086;104213;-75
2022/10/21 02:14:50;;;;;;;13.30;5.37;;;;;;;3.33;61.71;101636.11;126319;1086;104255;-76
2022/10/21 02:17:21;;;;;;;11.70;4.90;;;;;;;3.31;61.28;101645.46;125975;1086;104219;-76
2022/10/21 02:19:49;;;;;;;14.40;5.37;;;;;;;3.28;61.28;101647.80;126323;1086;104210;-76
2022/10/21 02:22:21;;;;;;;12.73;5.10;;;;;;;3.29;61.90;101650.52;126278;1085;104188;-76
2022/10/21 02:24:54;;;;;;;10.30;4.90;;;;;;;3.32;61.66;101650.78;126320;1086;104358;-75
2022/10/21 02:27:23;;;;;;;11.57;4.87;;;;;;;3.30;61.40;101646.23;126273;1086;104152;-75
2022/10/21 02:29:56;;;;;;;11.80;4.87;;;;;;;3.29;61.17;101647.93;126332;1086;104156;-76
2022/10/21 02:32:33;;;;;;;12.90;5.10;;;;;;;3.27;62.43;101656.35;126300;1086;104191;-75
2022/10/21 02:35:17;;;;;;;14.10;5.83;;;;;;;3.23;61.56;101650.02;126274;1086;104232;-75
2022/10/21 02:37:53;;;;;;;16.02;5.87;;;;;;;3.26;61.97;101658.05;126367;1086;102821;-75
2022/10/21 02:40:29;;;;;;;13.10;5.30;;;;;;;3.27;61.95;101646.87;126288;1086;104159;-76
2022/10/21 02:43:02;;;;;;;14.47;5.50;;;;;;;3.30;61.67;101654.02;126325;1086;104184;-75
2022/10/21 02:45:31;;;;;;;15.47;5.70;;;;;;;3.32;61.83;101655.97;125927;1086;103112;-75
2022/10/21 02:48:00;;;;;;;13.60;5.70;;;;;;;3.30;62.49;101656.61;126277;1086;104382;-75
2022/10/21 02:50:28;;;;;;;14.77;5.27;;;;;;;3.27;62.50;101659.84;126333;1086;104274;-76
2022/10/21 02:52:57;;;;;;;14.33;5.43;;;;;;;3.21;62.79;101661.92;126306;1086;104165;-76
2022/10/21 02:55:25;;;;;;;12.83;5.47;;;;;;;3.13;62.42;101653.53;126386;1086;102853;-76
2022/10/21 02:57:53;;;;;;;12.30;5.27;;;;;;;3.09;63.15;101659.23;126332;1086;104152;-75
2022/10/21 03:00:22;;;;;;;16.23;6.03;;;;;;;3.05;63.30;101657.14;126321;1086;104162;-76
2022/10/21 03:02:51;;;;;;;14.10;5.37;;;;;;;2.99;63.13;101649.77;126285;1086;104350;-76
2022/10/21 03:05:19;;;;;;;15.43;5.87;;;;;;;2.95;63.34;101657.16;126302;1086;110773;-75
2022/10/21 03:07:48;;;;;;;15.67;5.87;;;;;;;2.91;63.13;101655.97;126319;1086;104235;-76
2022/10/21 03:10:17;;;;;;;13.87;5.37;;;;;;;2.89;63.79;101652.35;126365;1086;102993;-76
2022/10/21 03:12:48;;;;;;;14.17;5.50;;;;;;;2.86;64.92;101658.17;126241;1086;105091;-76
2022/10/21 03:15:17;;;;;;;14.70;5.63;;;;;;;2.82;63.75;101653.53;126317;1086;102379;-76
2022/10/21 03:17:45;;;;;;;15.47;5.93;;;;;;;2.78;63.74;101648.84;126315;1085;104172;-75
2022/10/21 03:20:14;;;;;;;16.43;6.00;;;;;;;2.76;64.01;101655.59;126273;1086;104175;-76
2022/10/21 03:22:43;;;;;;;13.70;5.33;;;;;;;2.74;63.90;101646.76;126347;1086;104335;-76
2022/10/21 03:25:12;;;;;;;17.63;6.43;;;;;;;2.73;64.02;101644.96;126342;1086;104359;-75
2022/10/21 03:27:40;;;;;;;14.40;5.90;;;;;;;2.73;63.83;101646.63;125998;1086;104350;-75
2022/10/21 03:30:10;;;;;;;15.37;5.90;;;;;;;2.68;64.27;101641.05;126267;1086;104162;-75
2022/10/21 03:32:39;;;;;;;14.37;5.67;;;;;;;2.66;64.41;101658.16;126365;1086;102287;-75
2022/10/21 03:35:09;;;;;;;14.07;5.73;;;;;;;2.64;64.66;101663.21;126338;1086;102985;-75
2022/10/21 03:37:37;;;;;;;16.07;6.23;;;;;;;2.62;65.09;101657.00;126379;1086;104324;-76
2022/10/21 03:40:08;;;;;;;15.30;5.83;;;;;;;2.59;64.46;101655.84;126337;1086;104059;-75
2022/10/21 03:42:36;;;;;;;14.53;6.43;;;;;;;2.56;64.75;101660.76;126366;1086;104232;-76
2022/10/21 03:45:06;;;;;;;15.67;6.47;;;;;;;2.53;65.60;101671.75;126309;1086;104241;-76
2022/10/21 03:47:35;;;;;;;16.77;6.33;;;;;;;2.49;65.36;101664.48;126325;1086;104356;-75
2022/10/21 03:50:05;;;;;;;17.30;6.37;;;;;;;2.43;64.88;101657.10;126258;1086;104239;-76
2022/10/21 03:52:34;;;;;;;15.60;5.90;;;;;;;2.43;65.13;101663.94;126316;1085;104197;-75
2022/10/21 03:55:02;;;;;;;17.87;6.70;;;;;;;2.38;65.31;101657.47;125912;1086;104184;-75
2022/10/21 03:57:31;;;;;;;19.60;6.63;;;;;;;2.34;65.75;101656.30;126295;1085;104178;-75
2022/10/21 03:59:59;;;;;;;18.53;6.57;;;;;;;2.32;65.60;101661.34;126308;1086;104340;-75
2022/10/21 04:02:28;;;;;;;16.50;6.60;;;;;;;2.29;65.21;101665.33;126186;1086;104187;-76
2022/10/21 04:04:56;;;;;;;17.50;6.50;;;;;;;2.23;65.62;101672.56;126286;1086;102789;-75
2022/10/21 04:07:25;;;;;;;19.10;7.13;;;;;;;2.19;65.63;101663.63;126351;1086;104238;-76
2022/10/21 04:09:56;;;;;;;19.40;7.13;;;;;;;2.19;65.59;101666.21;126320;1086;102209;-75
2022/10/21 04:12:25;;;;;;;17.13;6.73;;;;;;;2.18;66.01;101666.98;126387;1086;104375;-76
2022/10/21 04:14:53;;;;;;;16.03;6.50;;;;;;;2.16;66.38;101666.84;126292;1086;104220;-76
2022/10/21 04:17:33;;;;;;;19.27;6.50;;;;;;;2.11;66.06;101668.13;126300;1086;104651;-75
2022/10/21 04:23:42;;;;;;;19.43;6.77;;;;;;;2.05;66.79;101670.17;126887;1086;104292;-76
2022/10/21 04:26:11;;;;;;;16.30;6.37;;;;;;;2.03;66.49;101663.96;126534;1086;104273;-75
2022/10/21 04:28:39;;;;;;;17.77;6.53;;;;;;;2.01;65.95;101655.16;126310;1087;104350;-76
2022/10/21 04:31:08;;;;;;;19.53;6.63;;;;;;;2.04;66.24;101654.50;126286;1085;102914;-74
2022/10/21 04:33:36;;;;;;;17.27;6.33;;;;;;;2.12;65.63;101650.90;126300;1086;104219;-75
2022/10/21 04:36:06;;;;;;;20.30;7.57;;;;;;;2.20;65.78;101646.39;126360;1086;104258;-75
2022/10/21 04:38:35;;;;;;;15.90;6.63;;;;;;;2.28;66.01;101655.77;126281;1086;103015;-74
2022/10/21 04:41:04;;;;;;;17.93;6.20;;;;;;;2.28;65.83;101656.66;125907;1086;104242;-74
2022/10/21 04:43:32;;;;;;;16.93;6.83;;;;;;;2.26;65.99;101655.62;126269;1086;104643;-75
2022/10/21 04:46:00;;;;;;;19.00;7.20;;;;;;;2.29;66.10;101655.90;126272;1086;104279;-74
2022/10/21 04:48:29;;;;;;;17.93;6.80;;;;;;;2.34;66.00;101664.07;126383;1086;104286;-75
2022/10/21 04:50:57;;;;;;;18.10;7.10;;;;;;;2.34;67.67;101658.89;126053;1086;104822;-75
2022/10/21 04:53:27;;;;;;;17.13;6.90;;;;;;;2.25;68.03;101663.27;126348;1086;104436;-75
2022/10/21 04:55:56;;;;;;;19.30;7.23;;;;;;;2.14;68.44;101664.91;125941;1086;104273;-75
2022/10/21 04:58:24;;;;;;;17.57;7.10;;;;;;;2.08;67.61;101680.80;126282;1086;102786;-75
2022/10/21 05:00:53;;;;;;;18.07;7.00;;;;;;;2.04;68.06;101678.73;126289;1086;104159;-75
2022/10/21 05:03:22;;;;;;;19.47;7.80;;;;;;;2.04;67.90;101681.33;126289;1086;104284;-75
2022/10/21 05:05:51;;;;;;;15.97;7.03;;;;;;;2.05;68.23;101677.05;126254;1086;104675;-76
2022/10/21 05:08:20;;;;;;;17.07;6.83;;;;;;;2.03;67.81;101676.91;125943;1086;104280;-76
2022/10/21 05:10:57;;;;;;;20.90;7.50;;;;;;;2.00;67.94;101675.73;125936;1086;102269;-76
2022/10/21 05:13:26;;;;;;;20.20;7.40;;;;;;;2.06;67.46;101681.46;125945;1086;104248;-76
2022/10/21 05:15:59;;;;;;;26.93;8.20;;;;;;;2.18;67.11;101681.62;126320;1086;104350;-76
2022/10/21 05:18:28;;;;;;;22.47;7.57;;;;;;;2.32;67.26;101682.07;125884;1086;104242;-77
2022/10/21 05:20:57;;;;;;;25.30;9.53;;;;;;;2.44;67.31;101692.58;125942;1086;104271;-76
2022/10/21 05:23:26;;;;;;;23.90;9.50;;;;;;;2.53;67.51;101691.58;126268;1086;104264;-77
2022/10/21 05:25:57;;;;;;;21.27;8.07;;;;;;;2.57;67.32;101688.46;125974;1086;104245;-76
2022/10/21 05:28:25;;;;;;;25.23;9.33;;;;;;;2.57;68.17;101688.46;126026;1086;103066;-76
2022/10/21 05:30:54;;;;;;;20.30;8.43;;;;;;;2.54;68.20;101693.38;126272;1086;104292;-76
2022/10/21 05:33:27;;;;;;;23.53;8.33;;;;;;;2.45;69.58;101690.91;126281;1086;101954;-77
2022/10/21 05:36:01;;;;;;;19.13;7.17;;;;;;;2.37;68.42;101690.25;127000;1086;104274;-77
2022/10/21 05:38:28;;;;;;;;;;;;;;;2.34;70.24;101700.34;127022;1086;101944;-77
2022/10/21 05:41:03;;;;;;;18.93;7.50;;;;;;;2.35;68.88;101686.59;127080;1086;104350;-80
2022/10/21 05:43:44;;;;;;;20.77;7.67;;;;;;;2.35;68.25;101689.17;126680;1086;104296;-77
2022/10/21 05:46:13;;;;;;;24.17;7.90;;;;;;;2.45;67.84;101683.14;127046;1086;102498;-77
2022/10/21 05:48:42;;;;;;;19.53;7.33;;;;;;;2.61;68.08;101687.97;126281;1086;104168;-77
2022/10/21 05:51:12;;;;;;;23.60;8.37;;;;;;;2.74;67.63;101688.23;126343;1085;102430;-76
2022/10/21 05:53:41;;;;;;;21.33;7.67;;;;;;;2.85;68.20;101687.48;125880;1086;104222;-75
2022/10/21 05:56:10;;;;;;;18.37;8.10;;;;;;;2.91;68.43;101684.49;126245;1086;102037;-76
2022/10/21 05:58:41;;;;;;;17.47;6.77;;;;;;;2.96;68.09;101677.11;125945;1086;104315;-75
2022/10/21 06:01:10;;;;;;;19.87;7.50;;;;;;;2.91;67.48;101668.94;126258;1086;104172;-76
2022/10/21 06:03:41;;;;;;;20.70;8.00;;;;;;;2.99;67.68;101672.18;126298;1086;104733;-76
2022/10/21 06:06:13;;;;;;;18.10;7.10;;;;;;;3.00;67.59;101686.97;126375;1086;103368;-76
2022/10/21 06:08:43;;;;;;;21.50;7.90;;;;;;;2.96;68.41;101690.07;125917;1089;102290;-74
2022/10/21 06:11:14;;;;;;;25.17;8.80;;;;;;;2.92;68.62;101690.61;126318;1086;102296;-77
2022/10/21 06:13:51;;;;;;;23.17;8.70;;;;;;;2.89;69.98;101699.02;125924;1090;104263;-76
2022/10/21 06:16:19;;;;;;;23.80;9.30;;;;;;;2.91;69.16;101699.15;126300;1086;101879;-76
2022/10/21 06:18:52;;;;;;;20.07;8.47;;;;;;;2.93;68.87;101695.92;126490;1087;103597;-76
2022/10/21 06:21:22;;;;;;;19.73;7.73;;;;;;;2.99;69.53;101699.05;127391;1085;102424;-76
2022/10/21 06:23:54;;;;;;;20.17;8.47;;;;;;;3.06;69.74;101695.28;125900;1086;104168;-76
2022/10/21 06:26:23;;;;;;;22.30;8.30;;;;;;;3.17;68.53;101697.08;126222;1086;104220;-76
2022/10/21 06:28:59;;;;;;;21.00;7.97;;;;;;;3.28;68.69;101690.20;126272;1086;104155;-76
2022/10/21 06:31:30;;;;;;;20.10;7.73;;;;;;;3.39;68.93;101689.41;126041;1086;103523;-76
2022/10/21 06:34:01;;;;;;;20.53;6.87;;;;;;;3.53;68.30;101693.16;127563;1085;104106;-76
2022/10/21 06:36:30;;;;;;;20.00;7.67;;;;;;;3.74;68.68;101695.70;126347;1086;104242;-76
2022/10/21 06:38:59;;;;;;;20.30;7.83;;;;;;;3.90;68.17;101695.30;126024;1086;104228;-75
2022/10/21 06:41:32;;;;;;;18.57;7.47;;;;;;;4.02;68.25;101691.09;126004;1086;104254;-76
2022/10/21 06:44:05;;;;;;;21.87;7.30;;;;;;;4.11;68.07;101688.31;125971;1086;104703;-76
2022/10/21 06:46:42;;;;;;;19.97;6.93;;;;;;;4.20;67.37;101694.25;126327;1086;104232;-76
2022/10/21 06:49:15;;;;;;;22.33;7.80;;;;;;;4.31;68.25;101695.11;127016;1085;101787;-75
2022/10/21 06:51:49;;;;;;;29.13;8.03;;;;;;;4.40;67.65;101688.05;126117;1089;104261;-76
2022/10/21 06:54:22;;;;;;;17.62;6.58;;;;;;;4.54;67.45;101694.34;127046;1086;104270;-76
2022/10/21 06:57:04;;;;;;;20.10;7.17;;;;;;;4.70;67.58;101700.76;126990;1086;102263;-75
2022/10/21 06:59:35;;;;;;;26.40;9.50;;;;;;;4.84;67.70;101705.34;126319;1086;104233;-75
2022/10/21 07:02:27;;;;;;;20.67;7.63;;;;;;;4.91;67.19;101681.63;127013;1086;102834;-75
2022/10/21 07:04:59;;;;;;;18.10;6.43;;;;;;;5.09;67.18;101681.22;127040;1086;102148;-74
2022/10/21 07:07:36;;;;;;;18.57;6.80;;;;;;;5.20;67.06;101673.46;127046;1086;104161;-75
2022/10/21 07:10:12;;;;;;;18.73;7.10;;;;;;;5.30;66.90;101662.04;126764;1086;104237;-75
2022/10/21 07:12:56;;;;;;;17.90;6.40;;;;;;;5.40;66.93;101661.03;126779;1086;104257;-75
2022/10/21 07:15:26;;;;;;;17.20;6.80;;;;;;;5.54;66.72;101662.06;126755;1087;104159;-74
2022/10/21 07:18:01;;;;;;;20.27;6.87;;;;;;;5.62;66.69;101653.11;126722;1086;104170;-75
2022/10/21 07:20:34;;;;;;;17.60;7.00;;;;;;;5.85;66.85;101659.12;127051;1086;104156;-75
2022/10/21 07:23:11;;;;;;;20.63;6.33;;;;;;;6.04;66.90;101654.47;126370;1086;104255;-74
2022/10/21 07:25:43;;;;;;;19.57;6.63;;;;;;;6.23;66.48;101666.23;126776;1086;104223;-74
2022/10/21 07:28:38;;;;;;;17.83;6.60;;;;;;;6.35;66.70;101667.11;127080;1086;104053;-77
2022/10/21 07:31:28;;;;;;;15.28;5.53;;;;;;;6.46;65.89;101668.77;126794;1089;104379;-76
2022/10/21 07:34:11;;;;;;;23.00;6.23;;;;;;;6.52;66.41;101655.27;126613;1089;102148;-74
2022/10/21 07:37:14;;;;;;;;;;;;;;;;;;;;;
2022/10/21 07:39:48;;;;;;;15.70;6.53;;;;;;;6.91;66.17;101679.72;126567;1085;102942;-74
2022/10/21 07:42:18;;;;;;;14.83;6.00;;;;;;;7.01;65.03;101689.08;126400;1086;102660;-76
2022/10/21 07:44:52;;;;;;;16.73;6.10;;;;;;;7.08;65.31;101687.81;126399;1086;101919;-74
2022/10/21 07:47:20;;;;;;;15.30;6.23;;;;;;;7.18;65.41;101683.34;126375;1086;105826;-75
2022/10/21 07:50:06;;;;;;;17.83;5.87;;;;;;;7.33;65.40;101682.56;126844;1089;102739;-74
2022/10/21 07:52:35;;;;;;;16.17;6.05;;;;;;;7.48;65.21;101680.05;126261;1086;104040;-76
2022/10/21 07:55:16;;;;;;;15.63;6.07;;;;;;;7.64;65.13;101672.45;126327;1086;104284;-74
2022/10/21 07:57:50;;;;;;;14.50;5.60;;;;;;;7.80;65.30;101668.23;126362;1086;104184;-76
2022/10/21 08:00:29;;;;;;;16.40;5.97;;;;;;;7.97;64.79;101669.34;126157;1086;104290;-76
2022/10/21 08:06:01;;;;;;;17.25;5.80;;;;;;;8.28;64.52;101661.75;126033;1086;104228;-76
2022/10/21 08:08:45;;;;;;;18.50;5.83;;;;;;;8.42;64.11;101668.75;126786;1086;104265;-75
2022/10/21 08:11:40;;;;;;;;;;;;;;;;;;;;;
2022/10/21 08:14:19;;;;;;;16.37;6.07;;;;;;;8.48;62.91;101683.97;127001;1086;102811;-76
2022/10/21 08:16:56;;;;;;;16.50;5.43;;;;;;;8.55;63.75;101675.69;127037;1085;102334;-76
2022/10/21 08:19:56;;;;;;;15.87;6.17;;;;;;;8.73;63.20;101664.58;126845;1086;102789;-77
2022/10/21 08:22:30;;;;;;;18.70;5.50;;;;;;;8.90;63.59;101658.66;126729;1086;103407;-76
2022/10/21 08:25:06;;;;;;;12.33;4.80;;;;;;;9.09;63.49;101662.39;126046;1086;104193;-76
2022/10/21 08:27:54;;;;;;;14.47;5.43;;;;;;;9.25;62.63;101662.48;126252;1086;103200;-76
2022/10/21 08:30:40;;;;;;;17.00;6.17;;;;;;;9.40;62.46;101661.61;125972;1089;104201;-77
2022/10/21 08:33:17;;;;;;;15.43;5.53;;;;;;;9.54;62.39;101669.44;125929;1086;104335;-73
2022/10/21 08:35:49;;;;;;;12.45;5.55;;;;;;;9.64;62.68;101665.63;126331;1086;104194;-76
2022/10/21 08:38:20;;;;;;;6.87;3.20;;;;;;;9.64;60.80;101667.36;126037;1087;102412;-75
2022/10/21 08:44:42;;;;;;;11.50;4.37;;;;;;;9.85;61.40;101660.73;126320;1086;103034;-76
2022/10/21 08:47:33;;;;;;;13.67;4.57;;;;;;;9.88;60.82;101674.02;126720;1086;104197;-75
2022/10/21 08:50:18;;;;;;;8.80;4.20;;;;;;;9.89;58.19;101670.59;126095;1086;102563;-75
2022/10/21 08:52:55;;;;;;;8.87;4.20;;;;;;;9.84;58.93;101677.27;126328;1086;104356;-74
2022/10/21 08:55:35;;;;;;;13.13;3.80;;;;;;;9.88;59.52;101670.51;126061;1086;104296;-75
2022/10/21 08:58:17;;;;;;;9.20;4.47;;;;;;;10.02;59.47;101671.27;126052;1086;103327;-75
2022/10/21 09:00:55;;;;;;;12.93;4.47;;;;;;;10.16;59.30;101659.85;126007;1089;104169;-75
2022/10/21 09:03:35;;;;;;;11.30;4.37;;;;;;;10.28;59.10;101654.36;126286;1086;104209;-75
2022/10/21 09:06:23;;;;;;;15.63;4.50;;;;;;;10.45;59.87;101657.06;126293;1086;104259;-74
2022/10/21 09:09:09;;;;;;;10.00;4.50;;;;;;;10.54;58.82;101653.20;126374;1085;102344;-74
2022/10/21 09:11:51;;;;;;;12.37;4.80;;;;;;;10.64;58.72;101651.08;126051;1086;104219;-75
2022/10/21 09:14:49;;;;;;;10.43;4.57;;;;;;;10.73;58.92;101654.20;126303;1086;104538;-74
2022/10/21 09:17:33;;;;;;;14.85;5.40;;;;;;;10.86;58.59;101647.88;126334;1086;105331;-75
2022/10/21 09:20:15;;;;;;;16.00;4.30;;;;;;;10.84;56.95;101639.02;126250;1086;104178;-75
2022/10/21 09:22:58;;;;;;;9.83;4.53;;;;;;;10.85;57.57;101638.21;126288;1086;102292;-76
2022/10/21 09:25:33;;;;;;;14.50;4.70;;;;;;;10.95;57.77;101633.52;126031;1086;104218;-74
2022/10/21 09:28:11;;;;;;;7.30;4.00;;;;;;;10.97;57.00;101636.23;125976;1086;102915;-75
2022/10/21 09:30:43;;;;;;;15.63;4.57;;;;;;;10.95;56.25;101628.27;127546;1086;102292;-76
2022/10/21 09:33:30;;;;;;;12.63;4.57;;;;;;;10.97;56.76;101626.62;126289;1086;110757;-77
2022/10/21 09:36:35;;;;;;;8.27;3.70;;;;;;;11.10;57.00;101625.52;126815;1086;104334;-77
2022/10/21 09:39:26;;;;;;;8.13;3.50;;;;;;;11.20;56.34;101620.73;127053;1085;104278;-77
2022/10/21 09:41:58;;;;;;;23.25;5.70;;;;;;;11.26;56.39;101619.31;126692;1086;102394;-76
2022/10/21 09:44:31;;;;;;;10.37;3.40;;;;;;;11.36;56.68;101617.15;127019;1086;104359;-77
2022/10/21 09:47:02;;;;;;;5.90;3.30;;;;;;;11.38;56.49;101603.28;126754;1086;104101;-76
2022/10/21 09:49:35;;;;;;;9.03;3.03;;;;;;;11.42;55.64;101606.95;126687;1086;102509;-76
2022/10/21 09:52:12;;;;;;;7.77;2.90;;;;;;;11.39;55.34;101602.46;126990;1086;103037;-78
2022/10/21 09:54:53;;;;;;;4.50;3.23;;;;;;;11.32;55.06;101606.48;127380;1086;104213;-78
2022/10/21 09:57:35;;;;;;;8.83;3.30;;;;;;;11.28;55.11;101604.55;127061;1086;102141;-76
2022/10/21 10:00:10;;;;;;;5.70;3.10;;;;;;;11.27;54.31;101599.22;127725;1086;104225;-77
2022/10/21 10:02:44;;;;;;;9.18;3.42;;;;;;;11.25;54.38;101604.39;127075;1086;104181;-77
2022/10/21 10:05:39;;;;;;;4.60;2.70;;;;;;;11.29;54.13;101594.93;127050;1086;104219;-77
2022/10/21 10:08:33;;;;;;;5.00;2.73;;;;;;;11.32;54.33;101587.20;127053;1086;104348;-77
2022/10/21 10:11:17;;;;;;;4.70;2.70;;;;;;;11.42;54.29;101596.44;127067;1085;104165;-76
2022/10/21 10:13:46;;;;;;;;;;;;;;;11.52;53.18;101590.82;126833;1086;102252;-76
2022/10/21 10:16:22;;;;;;;7.03;2.90;;;;;;;11.60;53.60;101592.09;127067;1086;104270;-77
2022/10/21 10:19:09;;;;;;;6.50;2.75;;;;;;;11.66;53.80;101592.39;127077;1086;104168;-77
2022/10/21 10:21:50;;;;;;;5.53;2.93;;;;;;;11.72;53.93;101596.13;126780;1086;104204;-77
2022/10/21 10:24:30;;;;;;;5.97;3.27;;;;;;;11.67;53.43;101594.20;127944;1085;102318;-77
2022/10/21 10:27:05;;;;;;;6.00;2.93;;;;;;;11.66;53.53;101591.50;127083;1086;104178;-77
2022/10/21 10:29:48;;;;;;;5.77;2.73;;;;;;;11.69;53.35;101589.02;126728;1086;104181;-77
2022/10/21 10:32:18;;;;;;;5.47;3.13;;;;;;;11.69;52.63;101587.28;126661;1089;104303;-77
2022/10/21 10:34:53;;;;;;;5.47;3.20;;;;;;;11.73;52.83;101583.06;126430;1086;104326;-76
2022/10/21 10:37:27;;;;;;;6.13;3.10;;;;;;;11.80;52.64;101577.28;126232;1085;104322;-76
2022/10/21 10:39:58;;;;;;;6.87;3.40;;;;;;;11.86;52.24;101574.06;125987;1086;104187;-77
2022/10/21 10:42:31;;;;;;;8.13;3.40;;;;;;;11.90;52.31;101569.83;126291;1086;104295;-76
2022/10/21 10:45:04;;;;;;;9.93;3.67;;;;;;;11.98;52.36;101565.86;126346;1086;102923;-77
2022/10/21 10:47:40;;;;;;;5.87;3.30;;;;;;;12.10;52.18;101555.02;126375;1086;104159;-75
2022/10/21 10:50:56;;;;;;;8.63;3.23;;;;;;;12.15;52.01;101549.12;126114;1086;102889;-77
2022/10/21 10:53:34;;;;;;;5.77;3.07;;;;;;;12.20;51.52;101536.17;126320;1087;104277;-77
2022/10/21 10:56:20;;;;;;;5.10;2.80;;;;;;;12.22;51.76;101530.16;126005;1086;105340;-76
2022/10/21 10:58:59;;;;;;;5.93;2.97;;;;;;;12.26;51.21;101536.45;126382;1086;102857;-77
2022/10/21 11:01:36;;;;;;;6.90;3.00;;;;;;;12.30;51.15;101532.25;126294;1086;104277;-77
2022/10/21 11:04:16;;;;;;;4.90;2.87;;;;;;;12.37;51.09;101529.05;126305;1086;104024;-76
2022/10/21 11:06:50;;;;;;;4.50;2.80;;;;;;;12.42;51.06;101530.17;125991;1086;104210;-76
2022/10/21 11:09:24;;;;;;;7.27;2.77;;;;;;;12.46;50.68;101520.67;125989;1086;102815;-77
2022/10/21 11:12:02;;;;;;;5.83;2.70;;;;;;;12.47;50.67;101518.11;126076;1086;102901;-76
2022/10/21 11:14:31;;;;;;;9.77;2.93;;;;;;;12.51;50.62;101521.77;126296;1086;104251;-76
2022/10/21 11:17:25;;;;;;;6.87;2.70;;;;;;;12.52;50.40;101505.14;126036;1086;103377;-77
2022/10/21 11:20:18;;;;;;;5.50;2.67;;;;;;;12.51;50.10;101496.36;127028;1086;104225;-76
2022/10/21 11:23:16;;;;;;;6.80;3.10;;;;;;;12.51;50.05;101498.99;127043;1086;104293;-75
2022/10/21 11:25:53;;;;;;;4.73;2.60;;;;;;;12.52;50.15;101492.88;126980;1086;117764;-76
2022/10/21 11:28:37;;;;;;;6.80;3.23;;;;;;;12.47;50.01;101477.73;126987;1086;102533;-76
2022/10/21 11:31:21;;;;;;;7.43;3.00;;;;;;;12.54;49.86;101487.67;127055;1086;104200;-76
2022/10/21 11:34:05;;;;;;;16.90;4.23;;;;;;;12.54;49.32;101490.30;126693;1086;104289;-77
2022/10/21 11:36:51;;;;;;;8.93;3.30;;;;;;;12.52;49.42;101478.82;127991;1085;104162;-76
2022/10/21 11:39:45;;;;;;;6.20;3.10;;;;;;;12.45;48.62;101475.03;126788;1086;104169;-78
2022/10/21 11:42:33;;;;;;;4.67;2.73;;;;;;;12.41;48.96;101468.71;126999;1086;104152;-77
2022/10/21 11:45:22;;;;;;;6.53;3.00;;;;;;;12.43;48.87;101466.14;126695;1085;103360;-76
2022/10/21 11:48:02;;;;;;;6.27;2.77;;;;;;;12.43;48.46;101463.52;127047;1086;104306;-76
2022/10/21 11:50:43;;;;;;;4.75;2.67;;;;;;;12.44;48.84;101462.69;126784;1086;104146;-76
2022/10/21 11:53:40;;;;;;;5.00;2.83;;;;;;;12.40;48.49;101456.41;126010;1086;104174;-75
2022/10/21 11:56:22;;;;;;;7.17;3.10;;;;;;;12.39;48.40;101457.23;126695;1086;102367;-76
2022/10/21 11:59:07;;;;;;;4.30;2.80;;;;;;;12.41;48.30;101465.19;126328;1086;104231;-76